createdAt,value
2022-09-13T00:02:05.286Z,99.90
2022-09-13T00:04:38.345Z,99.90
2022-09-13T00:07:13.196Z,99.90
2022-09-13T00:09:43.817Z,99.90
2022-09-13T00:17:44.925Z,99.90
2022-09-13T00:20:12.232Z,99.90
2022-09-13T00:22:39.121Z,99.90
2022-09-13T00:25:10.056Z,99.90
2022-09-13T00:27:37.292Z,99.90
2022-09-13T00:30:10.445Z,99.90
2022-09-13T00:32:38.255Z,99.90
2022-09-13T00:35:07.081Z,99.90
2022-09-13T00:37:39.809Z,99.90
2022-09-13T00:40:16.395Z,99.90
2022-09-13T00:42:44.757Z,99.90
2022-09-13T00:45:18.412Z,99.90
2022-09-13T00:48:03.938Z,99.90
2022-09-13T00:50:46.598Z,99.90
2022-09-13T00:53:31.413Z,99.90
2022-09-13T00:56:17.847Z,99.90
2022-09-13T00:59:04.655Z,99.90
2022-09-13T01:02:23.640Z,99.90
2022-09-13T01:04:51.941Z,99.90
2022-09-13T01:07:18.820Z,99.90
2022-09-13T01:09:50.608Z,99.90
2022-09-13T01:12:57.675Z,99.90
2022-09-13T01:15:32.327Z,99.90
2022-09-13T01:18:53.673Z,99.90
2022-09-13T01:22:26.342Z,99.90
2022-09-13T01:25:24.078Z,99.90
2022-09-13T01:28:39.541Z,99.90
2022-09-13T01:31:37.721Z,99.90
2022-09-13T01:34:33.788Z,99.90
2022-09-13T01:37:26.465Z,99.90
2022-09-13T01:40:49.327Z,99.90
2022-09-13T01:43:53.140Z,99.90
2022-09-13T01:46:26.076Z,99.90
2022-09-13T01:49:23.986Z,99.90
2022-09-13T01:52:09.701Z,99.90
2022-09-13T01:55:28.494Z,99.90
2022-09-13T01:58:49.021Z,99.90
2022-09-13T02:01:35.566Z,99.90
2022-09-13T02:04:28.272Z,99.90
2022-09-13T02:07:14.125Z,99.90
2022-09-13T02:13:42.936Z,99.90
2022-09-13T02:17:26.426Z,99.90
2022-09-13T02:20:28.513Z,99.90
2022-09-13T02:29:28.435Z,99.90
2022-09-13T02:32:15.697Z,99.90
2022-09-13T02:35:05.280Z,99.90
2022-09-13T02:38:01.522Z,99.90
2022-09-13T02:40:43.240Z,99.90
2022-09-13T02:43:26.963Z,99.90
2022-09-13T02:46:07.421Z,99.90
2022-09-13T02:48:46.568Z,99.90
2022-09-13T02:51:55.093Z,99.90
2022-09-13T02:55:06.644Z,99.90
2022-09-13T02:58:17.553Z,99.90
2022-09-13T03:00:47.639Z,99.90
2022-09-13T03:03:44.061Z,99.90
2022-09-13T03:06:24.548Z,99.90
2022-09-13T03:09:03.481Z,99.90
2022-09-13T03:11:52.613Z,99.90
2022-09-13T03:15:02.510Z,99.90
2022-09-13T03:18:07.580Z,99.90
2022-09-13T03:21:20.492Z,99.90
2022-09-13T03:24:39.585Z,99.90
2022-09-13T03:28:13.363Z,99.90
2022-09-13T03:30:51.808Z,99.90
2022-09-13T03:34:10.498Z,99.90
2022-09-13T03:37:06.754Z,99.90
2022-09-13T03:40:12.340Z,99.90
2022-09-13T03:42:51.166Z,99.90
2022-09-13T03:45:23.577Z,99.90
2022-09-13T03:47:58.483Z,99.90
2022-09-13T03:50:26.836Z,99.90
2022-09-13T03:53:49.376Z,99.90
2022-09-13T03:56:27.542Z,99.90
2022-09-13T03:58:56.215Z,99.90
2022-09-13T04:01:25.902Z,99.90
2022-09-13T04:03:56.863Z,99.90
2022-09-13T04:06:25.232Z,99.90
2022-09-13T04:09:43.921Z,99.90
2022-09-13T04:12:17.735Z,99.90
2022-09-13T04:14:45.777Z,99.90
2022-09-13T04:17:15.097Z,99.90
2022-09-13T04:20:01.250Z,99.90
2022-09-13T04:22:29.061Z,99.90
2022-09-13T04:25:01.500Z,99.90
2022-09-13T04:27:32.546Z,99.90
2022-09-13T04:30:27.964Z,99.90
2022-09-13T04:33:05.554Z,99.90
2022-09-13T04:35:38.435Z,99.90
2022-09-13T04:38:06.851Z,99.90
2022-09-13T04:40:34.326Z,99.90
2022-09-13T04:43:01.535Z,99.90
2022-09-13T04:45:58.932Z,99.90
2022-09-13T04:48:25.913Z,99.90
2022-09-13T04:50:52.550Z,99.90
2022-09-13T04:53:19.303Z,99.90
2022-09-13T04:55:46.662Z,99.90
2022-09-13T04:58:14.844Z,99.90
2022-09-13T05:00:41.675Z,99.90
2022-09-13T05:03:10.480Z,99.90
2022-09-13T05:05:37.650Z,99.90
2022-09-13T05:08:11.698Z,99.90
2022-09-13T05:10:42.688Z,99.90
2022-09-13T05:13:11.252Z,99.90
2022-09-13T05:15:46.636Z,99.90
2022-09-13T05:18:17.223Z,99.90
2022-09-13T05:20:45.084Z,99.90
2022-09-13T05:32:24.533Z,99.90
2022-09-13T05:35:03.453Z,99.90
2022-09-13T05:37:30.562Z,99.90
2022-09-13T05:40:15.005Z,99.90
2022-09-13T05:42:41.926Z,99.90
2022-09-13T05:45:09.147Z,99.90
2022-09-13T05:47:36.390Z,99.90
2022-09-13T05:50:10.658Z,99.90
2022-09-13T05:52:42.795Z,99.90
2022-09-13T05:55:09.414Z,99.90
2022-09-13T05:58:02.774Z,99.90
2022-09-13T06:00:33.858Z,99.90
2022-09-13T06:03:00.472Z,99.90
2022-09-13T06:05:31.267Z,99.90
2022-09-13T06:08:02.468Z,99.90
2022-09-13T06:10:33.555Z,99.90
2022-09-13T06:13:03.326Z,99.90
2022-09-13T06:15:30.831Z,99.90
2022-09-13T06:18:02.788Z,99.90
2022-09-13T06:20:30.486Z,99.90
2022-09-13T06:22:58.513Z,99.90
2022-09-13T06:25:28.306Z,99.90
2022-09-13T06:28:09.257Z,99.90
2022-09-13T06:30:36.418Z,99.90
2022-09-13T06:33:04.807Z,99.90
2022-09-13T06:35:36.533Z,99.90
2022-09-13T06:38:03.788Z,99.90
2022-09-13T06:41:03.854Z,99.90
2022-09-13T06:43:34.449Z,99.90
2022-09-13T06:46:09.560Z,99.90
2022-09-13T06:48:40.235Z,99.90
2022-09-13T06:51:13.679Z,99.90
2022-09-13T06:53:42.802Z,99.90
2022-09-13T06:56:16.673Z,99.90
2022-09-13T06:58:56.941Z,99.90
2022-09-13T07:01:27.943Z,99.90
2022-09-13T07:04:16.123Z,99.90
2022-09-13T07:06:49.218Z,99.90
2022-09-13T07:09:22.120Z,99.90
2022-09-13T07:11:56.466Z,99.90
2022-09-13T07:14:38.590Z,99.90
2022-09-13T07:17:05.505Z,99.90
2022-09-13T07:19:34.688Z,99.90
2022-09-13T07:25:06.236Z,99.90
2022-09-13T07:27:37.909Z,99.90
2022-09-13T07:30:05.748Z,99.90
2022-09-13T07:32:37.441Z,99.90
2022-09-13T07:35:07.395Z,99.90
2022-09-13T07:37:41.605Z,99.90
2022-09-13T07:40:08.890Z,99.90
2022-09-13T07:42:35.485Z,99.90
2022-09-13T07:45:08.624Z,99.90
2022-09-13T07:47:41.942Z,99.90
2022-09-13T07:50:14.655Z,99.90
2022-09-13T07:59:03.679Z,99.90
2022-09-13T08:01:59.311Z,99.90
2022-09-13T08:04:42.060Z,99.90
2022-09-13T08:07:37.638Z,99.90
2022-09-13T08:10:22.602Z,99.90
2022-09-13T08:12:54.888Z,99.90
2022-09-13T08:15:22.117Z,99.90
2022-09-13T08:17:53.402Z,99.90
2022-09-13T08:20:24.855Z,99.90
2022-09-13T08:22:54.375Z,99.90
2022-09-13T08:25:58.879Z,99.90
2022-09-13T08:28:34.705Z,99.90
2022-09-13T08:31:20.023Z,99.90
2022-09-13T08:33:53.627Z,99.90
2022-09-13T08:36:23.145Z,99.90
2022-09-13T08:39:41.090Z,99.90
2022-09-13T08:42:08.898Z,99.90
2022-09-13T08:44:47.250Z,99.90
2022-09-13T08:47:29.288Z,99.90
2022-09-13T08:50:06.553Z,99.90
2022-09-13T08:53:06.120Z,99.90
2022-09-13T08:56:09.878Z,99.90
2022-09-13T08:58:56.569Z,99.90
2022-09-13T09:01:37.762Z,99.90
2022-09-13T09:04:31.755Z,99.90
2022-09-13T09:07:37.250Z,99.90
2022-09-13T09:10:28.803Z,99.90
2022-09-13T09:13:07.823Z,99.90
2022-09-13T09:15:39.399Z,99.90
2022-09-13T09:18:16.781Z,99.90
2022-09-13T09:20:49.869Z,99.90
2022-09-13T09:23:40.967Z,99.90
2022-09-13T09:26:18.202Z,99.90
2022-09-13T09:29:05.724Z,99.90
2022-09-13T09:31:45.607Z,99.90
2022-09-13T09:34:24.762Z,99.90
2022-09-13T09:37:00.785Z,99.90
2022-09-13T09:39:32.789Z,99.90
2022-09-13T09:42:03.713Z,99.90
2022-09-13T09:44:33.807Z,99.90
2022-09-13T09:47:09.465Z,99.90
2022-09-13T09:50:09.685Z,99.90
2022-09-13T09:53:16.152Z,99.90
2022-09-13T09:56:05.091Z,99.90
2022-09-13T09:58:45.460Z,99.90
2022-09-13T10:01:36.908Z,99.90
2022-09-13T10:04:10.023Z,99.90
2022-09-13T10:06:43.134Z,99.90
2022-09-13T10:09:12.841Z,99.90
2022-09-13T10:11:56.317Z,99.90
2022-09-13T10:14:44.249Z,99.90
2022-09-13T10:17:29.017Z,99.90
2022-09-13T10:26:06.562Z,99.90
2022-09-13T10:28:44.006Z,99.90
2022-09-13T10:31:17.645Z,99.90
2022-09-13T10:33:50.643Z,99.90
2022-09-13T10:36:52.716Z,99.90
2022-09-13T10:39:21.883Z,99.90
2022-09-13T10:41:52.277Z,99.90
2022-09-13T10:44:32.261Z,99.90
2022-09-13T10:47:02.306Z,99.90
2022-09-13T10:49:56.329Z,99.90
2022-09-13T10:52:34.645Z,98.60
2022-09-13T10:55:23.783Z,99.40
2022-09-13T10:57:53.930Z,98.60
2022-09-13T11:00:45.618Z,97.90
2022-09-13T11:03:44.968Z,98.50
2022-09-13T11:06:16.396Z,99.20
2022-09-13T11:08:55.131Z,99.30
2022-09-13T11:11:24.563Z,97.90
2022-09-13T11:14:00.856Z,98.00
2022-09-13T11:16:55.592Z,98.50
2022-09-13T11:19:40.306Z,97.60
2022-09-13T11:22:30.018Z,97.30
2022-09-13T11:25:22.691Z,97.30
2022-09-13T11:28:08.480Z,96.90
2022-09-13T11:31:04.277Z,95.70
2022-09-13T11:33:41.339Z,95.70
2022-09-13T11:36:47.458Z,96.10
2022-09-13T11:39:30.097Z,96.70
2022-09-13T11:42:41.861Z,96.30
2022-09-13T11:45:28.453Z,96.10
2022-09-13T11:48:04.151Z,95.80
2022-09-13T11:50:35.333Z,95.10
2022-09-13T11:53:29.978Z,94.90
2022-09-13T11:56:09.026Z,93.90
2022-09-13T11:58:49.985Z,93.40
2022-09-13T12:01:25.384Z,94.20
2022-09-13T12:04:07.318Z,95.00
2022-09-13T12:06:39.368Z,95.30
2022-09-13T12:09:10.711Z,94.90
2022-09-13T12:11:48.311Z,93.70
2022-09-13T12:14:20.241Z,94.30
2022-09-13T12:16:51.967Z,92.10
2022-09-13T12:19:45.981Z,93.30
2022-09-13T12:22:13.691Z,94.40
2022-09-13T12:24:48.364Z,93.40
2022-09-13T12:27:42.462Z,90.90
2022-09-13T12:30:17.110Z,90.90
2022-09-13T12:32:46.752Z,91.30
2022-09-13T12:35:42.767Z,90.90
2022-09-13T12:38:31.746Z,92.70
2022-09-13T12:41:14.530Z,91.00
2022-09-13T12:43:56.404Z,89.70
2022-09-13T12:47:02.075Z,90.30
2022-09-13T12:50:38.120Z,86.30
2022-09-13T12:53:35.415Z,90.50
2022-09-13T12:57:03.573Z,89.20
2022-09-13T12:59:54.193Z,88.70
2022-09-13T13:02:36.887Z,88.60
2022-09-13T13:05:19.484Z,87.20
2022-09-13T13:07:53.434Z,86.50
2022-09-13T13:10:36.358Z,84.20
2022-09-13T13:13:14.419Z,88.20
2022-09-13T13:15:50.512Z,85.80
2022-09-13T13:18:41.048Z,85.30
2022-09-13T13:21:22.672Z,84.60
2022-09-13T13:24:15.153Z,83.20
2022-09-13T13:26:42.119Z,82.10
2022-09-13T13:29:15.137Z,83.70
2022-09-13T13:31:57.099Z,81.10
2022-09-13T13:34:48.591Z,80.70
2022-09-13T13:37:18.919Z,81.00
2022-09-13T13:40:14.195Z,81.20
2022-09-13T13:42:45.482Z,81.80
2022-09-13T13:45:18.210Z,83.90
2022-09-13T13:48:05.556Z,85.60
2022-09-13T13:50:52.367Z,85.30
2022-09-13T13:53:34.820Z,88.70
2022-09-13T13:56:19.103Z,87.20
2022-09-13T13:58:57.691Z,84.40
2022-09-13T14:01:32.571Z,82.40
2022-09-13T14:04:28.865Z,80.20
2022-09-13T14:07:28.745Z,81.80
2022-09-13T14:10:21.638Z,82.20
2022-09-13T14:13:07.019Z,82.30
2022-09-13T14:15:55.784Z,82.90
2022-09-13T14:18:37.667Z,83.70
2022-09-13T14:21:18.341Z,83.40
2022-09-13T14:23:45.033Z,84.00
2022-09-13T14:26:12.442Z,85.60
2022-09-13T14:28:40.970Z,86.30
2022-09-13T14:31:15.701Z,85.20
2022-09-13T14:33:42.581Z,83.50
2022-09-13T14:36:21.646Z,83.20
2022-09-13T14:38:57.445Z,82.20
2022-09-13T14:41:36.811Z,82.50
2022-09-13T14:44:31.866Z,82.30
2022-09-13T14:47:11.535Z,82.50
2022-09-13T14:49:49.282Z,83.00
2022-09-13T14:52:29.808Z,79.20
2022-09-13T14:55:15.968Z,80.20
2022-09-13T14:57:51.806Z,79.90
2022-09-13T15:00:21.594Z,81.80
2022-09-13T15:02:55.295Z,81.80
2022-09-13T15:05:35.822Z,80.00
2022-09-13T15:08:27.546Z,78.70
2022-09-13T15:10:59.777Z,78.40
2022-09-13T15:13:26.801Z,80.30
2022-09-13T15:15:55.298Z,79.30
2022-09-13T15:18:37.241Z,78.50
2022-09-13T15:21:05.723Z,77.80
2022-09-13T15:23:34.856Z,77.20
2022-09-13T15:26:27.653Z,78.20
2022-09-13T15:29:03.422Z,78.00
2022-09-13T15:31:33.143Z,79.30
2022-09-13T15:34:23.290Z,80.10
2022-09-13T15:37:13.476Z,79.10
2022-09-13T15:39:44.930Z,78.20
2022-09-13T15:42:11.696Z,79.00
2022-09-13T15:44:42.483Z,80.80
2022-09-13T15:47:15.552Z,83.10
2022-09-13T15:49:51.173Z,83.50
2022-09-13T15:52:20.663Z,84.60
2022-09-13T15:54:49.863Z,85.10
2022-09-13T15:57:25.426Z,88.20
2022-09-13T15:59:58.853Z,87.20
2022-09-13T16:02:31.650Z,88.00
2022-09-13T16:04:58.558Z,87.30
2022-09-13T16:07:26.351Z,88.20
2022-09-13T16:09:53.730Z,89.40
2022-09-13T16:12:23.820Z,90.50
2022-09-13T16:14:53.921Z,90.90
2022-09-13T16:17:26.366Z,91.90
2022-09-13T16:19:54.140Z,91.80
2022-09-13T16:22:21.493Z,92.20
2022-09-13T16:24:53.315Z,93.20
2022-09-13T16:27:25.756Z,93.80
2022-09-13T16:29:54.188Z,93.90
2022-09-13T16:32:21.277Z,94.10
2022-09-13T16:34:48.201Z,94.80
2022-09-13T16:37:17.467Z,95.70
2022-09-13T16:39:49.989Z,95.40
2022-09-13T17:06:34.215Z,99.30
2022-09-13T17:09:04.551Z,99.50
2022-09-13T17:11:35.770Z,99.40
2022-09-13T17:14:04.960Z,99.20
2022-09-13T17:16:31.985Z,99.50
2022-09-13T17:19:04.207Z,99.80
2022-09-13T17:21:33.868Z,99.90
2022-09-13T17:24:01.556Z,99.90
2022-09-13T17:26:29.884Z,99.90
2022-09-13T17:28:59.017Z,99.90
2022-09-13T17:31:27.895Z,99.90
2022-09-13T17:33:55.031Z,99.90
2022-09-13T17:36:22.615Z,99.90
2022-09-13T17:38:54.092Z,99.90
2022-09-13T17:41:20.832Z,99.90
2022-09-13T17:43:51.875Z,99.90
2022-09-13T17:46:28.233Z,99.90
2022-09-13T17:48:59.217Z,99.90
2022-09-13T17:51:28.607Z,99.90
2022-09-13T17:54:02.364Z,99.90
2022-09-13T17:56:37.395Z,99.90
2022-09-13T17:59:19.654Z,99.90
2022-09-13T18:01:49.636Z,99.90
2022-09-13T18:04:20.194Z,99.90
2022-09-13T18:06:53.094Z,99.90
2022-09-13T18:09:20.926Z,99.90
2022-09-13T18:11:49.825Z,99.90
2022-09-13T18:14:23.193Z,99.90
2022-09-13T18:16:54.874Z,99.90
2022-09-13T18:19:44.370Z,99.90
2022-09-13T18:22:12.170Z,99.90
2022-09-13T18:24:42.940Z,99.90
2022-09-13T18:27:11.059Z,99.90
2022-09-13T18:29:37.961Z,99.90
2022-09-13T18:32:04.821Z,99.90
2022-09-13T18:34:31.726Z,99.90
2022-09-13T18:36:58.419Z,99.90
2022-09-13T18:39:25.193Z,99.90
2022-09-13T18:41:52.608Z,99.90
2022-09-13T18:44:19.269Z,99.90
2022-09-13T18:46:50.707Z,99.90
2022-09-13T18:49:19.938Z,99.90
2022-09-13T18:51:49.024Z,99.90
2022-09-13T18:54:17.948Z,99.90
2022-09-13T18:56:47.755Z,99.90
2022-09-13T18:59:17.957Z,99.90
2022-09-13T19:01:48.782Z,99.90
2022-09-13T19:04:20.760Z,99.90
2022-09-13T19:06:55.777Z,99.90
2022-09-13T19:09:25.693Z,99.90
2022-09-13T19:11:54.033Z,99.90
2022-09-13T19:14:24.683Z,99.90
2022-09-13T19:17:01.175Z,99.90
2022-09-13T19:19:32.495Z,99.90
2022-09-13T19:21:59.675Z,99.90
2022-09-13T19:24:30.413Z,99.90
2022-09-13T19:27:03.851Z,99.90
2022-09-13T19:29:33.775Z,99.90
2022-09-13T19:32:43.600Z,99.90
2022-09-13T19:35:17.928Z,99.90
2022-09-13T19:37:44.791Z,99.90
2022-09-13T19:40:17.456Z,99.90
2022-09-13T19:42:47.250Z,99.90
2022-09-13T19:45:14.323Z,99.90
2022-09-13T19:50:39.408Z,99.90
2022-09-13T19:53:08.799Z,99.90
2022-09-13T19:55:51.144Z,99.90
2022-09-13T19:58:20.358Z,99.90
2022-09-13T20:00:47.052Z,99.90
2022-09-13T20:03:29.353Z,99.90
2022-09-13T20:06:09.390Z,99.90
2022-09-13T20:08:39.320Z,99.90
2022-09-13T20:11:09.171Z,99.90
2022-09-13T20:13:40.662Z,99.90
2022-09-13T20:16:31.307Z,99.90
2022-09-13T20:19:29.562Z,99.90
2022-09-13T20:21:59.176Z,99.90
2022-09-13T20:24:32.157Z,99.90
2022-09-13T20:26:58.879Z,99.90
2022-09-13T20:29:28.034Z,99.90
2022-09-13T20:31:55.712Z,99.90
2022-09-13T20:34:23.071Z,99.90
2022-09-13T20:36:51.799Z,99.90
2022-09-13T20:39:18.962Z,99.90
2022-09-13T20:41:51.281Z,99.90
2022-09-13T20:44:17.933Z,99.90
2022-09-13T20:46:46.733Z,99.90
2022-09-13T20:49:13.905Z,99.90
2022-09-13T20:51:41.041Z,99.90
2022-09-13T20:54:10.272Z,99.90
2022-09-13T20:56:37.676Z,99.90
2022-09-13T20:59:04.791Z,99.90
2022-09-13T21:01:32.755Z,99.90
2022-09-13T21:04:05.170Z,99.90
2022-09-13T21:06:39.383Z,99.90
2022-09-13T21:09:08.681Z,99.90
2022-09-13T21:11:41.502Z,99.90
2022-09-13T21:14:08.829Z,99.90
2022-09-13T21:16:40.514Z,99.90
2022-09-13T21:19:08.434Z,99.90
2022-09-13T21:21:41.225Z,99.90
2022-09-13T21:24:11.951Z,99.90
2022-09-13T21:26:45.733Z,99.90
2022-09-13T21:29:22.264Z,99.90
2022-09-13T21:31:53.755Z,99.90
2022-09-13T21:34:23.868Z,99.90
2022-09-13T21:36:52.321Z,99.90
2022-09-13T21:39:23.569Z,99.90
2022-09-13T21:41:51.999Z,99.90
2022-09-13T21:44:18.747Z,99.90
2022-09-13T21:46:46.699Z,99.90
2022-09-13T21:49:14.997Z,99.90
2022-09-13T21:51:50.268Z,99.90
2022-09-13T21:54:20.581Z,99.90
2022-09-13T21:56:50.636Z,99.90
2022-09-13T21:59:19.465Z,99.90
2022-09-13T22:02:14.643Z,99.90
2022-09-13T22:04:48.472Z,99.90
2022-09-13T22:07:18.521Z,99.90
2022-09-13T22:09:45.157Z,99.90
2022-09-13T22:12:12.929Z,99.90
2022-09-13T22:14:50.203Z,99.90
2022-09-13T22:20:13.517Z,99.90
2022-09-13T22:22:55.235Z,99.90
2022-09-13T22:25:31.386Z,99.90
2022-09-13T22:27:59.058Z,99.90
2022-09-13T22:30:34.679Z,99.90
2022-09-13T22:33:07.095Z,99.90
2022-09-13T22:35:37.717Z,99.90
2022-09-13T22:38:07.842Z,99.90
2022-09-13T22:40:35.047Z,99.90
2022-09-13T22:43:04.926Z,99.90
2022-09-13T22:45:31.621Z,99.90
2022-09-13T22:48:00.427Z,99.90
2022-09-13T22:50:30.754Z,99.90
2022-09-13T22:52:57.979Z,99.90
2022-09-13T22:55:24.707Z,99.90
2022-09-13T22:57:54.738Z,99.90
2022-09-13T23:06:14.937Z,99.90
2022-09-13T23:08:42.214Z,99.90
2022-09-13T23:11:10.067Z,99.90
2022-09-13T23:13:40.401Z,99.90
2022-09-13T23:16:09.670Z,99.90
2022-09-13T23:18:36.457Z,99.90
2022-09-13T23:21:03.147Z,99.90
2022-09-13T23:23:30.578Z,99.90
2022-09-13T23:26:09.734Z,99.90
2022-09-13T23:28:39.043Z,99.90
2022-09-13T23:31:31.841Z,99.90
2022-09-13T23:33:59.565Z,99.90
2022-09-13T23:36:35.665Z,99.90
2022-09-13T23:39:18.990Z,99.90
2022-09-13T23:41:50.873Z,99.90
2022-09-13T23:44:18.049Z,99.90
2022-09-13T23:46:51.497Z,99.90
2022-09-13T23:49:18.098Z,99.90
2022-09-13T23:51:52.111Z,99.90
2022-09-13T23:54:18.710Z,99.90
2022-09-13T23:56:46.601Z,99.90
2022-09-13T23:59:17.521Z,99.90
